Weather at Millipore Heliport

Public forecast

Using degrees Fahrenheit for public forecast. Weather courtesy of forecast.io.

Closest aviation weather report (METAR) to Millipore Heliport

Closest report is Jaffrey Airport Silver Ranch Airport, 1.0 nm (1.8 km) WNW. Retrieved 2020/09/26 10:52 UTC (24 minutes ago):

KAFN 261052Z AUTO 00000KT 1/2SM FG VV002 13/13 A3015 RMK AO2 SLP214 T01330128

Closest aviation forecast (TAF) to Millipore Heliport

Closest forecast is Manchester-Boston Regional Airport, 25.4 nm (47.0 km) ENE. Retrieved 2020/09/26 06:22 UTC (5 hours ago):

TAF KMHT 260520Z 2606/2706 VRB03KT P6SM BKN004 FM260900 00000KT 1/2SM FG BKN003 FM261200 18006KT P6SM SCT050 FM270500 16004KT 6SM BR OVC007